Wetterdaten: Woche 31.12.18 - 06.01.19 (KW1)
Datum Zeit Temp. Aussen Temp. o. S. +5cm Feuchte Auss Luftdruck Regen Sonnenschein Regendauer Solar Windben Empfang
31.12.2018 00:00 8,2 C 7,4 C 6,8 C 99 % 1030,1 hPa 0,0 l/m 0,00 h 0,07 h 0 W/m 4,5 km/h (1 Bft) 97,96 %
31.12.2018 01:00 8,2 C 7,8 C 7,1 C 99 % 1030,2 hPa 0,2 l/m 0,00 h 0,07 h 0 W/m 3,5 km/h (1 Bft) 99,07 %
31.12.2018 02:00 8,3 C 7,8 C 7,2 C 99 % 1030,4 hPa 0,0 l/m 0,00 h 0,07 h 0 W/m 2,0 km/h (1 Bft) 95,37 %
31.12.2018 03:00 8,3 C 7,8 C 7,2 C 99 % 1030,5 hPa 0,0 l/m 0,00 h 0,00 h 0 W/m 0,6 km/h (0 Bft) 98,36 %
31.12.2018 04:00 8,4 C 7,8 C 7,2 C 99 % 1030,3 hPa 0,2 l/m 0,00 h 0,33 h 0 W/m 1,5 km/h (1 Bft) 97,96 %
31.12.2018 05:00 8,5 C 7,8 C 7,2 C 99 % 1030,2 hPa 0,0 l/m 0,00 h 0,00 h 0 W/m 2,1 km/h (1 Bft) 96,79 %
31.12.2018 06:00 8,6 C 7,8 C 7,2 C 100 % 1030,2 hPa 0,0 l/m 0,00 h 0,00 h 0 W/m 4,3 km/h (1 Bft) 97,68 %
31.12.2018 07:00 8,6 C 7,8 C 7,2 C 100 % 1030,6 hPa 0,0 l/m 0,00 h 0,00 h 0 W/m 5,2 km/h (1 Bft) 98,26 %
31.12.2018 08:00 8,6 C 7,8 C 7,2 C 100 % 1031,1 hPa 0,0 l/m 0,00 h 0,00 h 4 W/m 3,5 km/h (1 Bft) 96,86 %
31.12.2018 09:00 8,6 C 7,9 C 7,3 C 100 % 1031,5 hPa 0,0 l/m 0,00 h 0,00 h 11 W/m 6,4 km/h (2 Bft) 96,39 %
31.12.2018 10:00 8,7 C 8,3 C 7,8 C 100 % 1031,7 hPa 0,0 l/m 0,00 h 0,00 h 22 W/m 9,3 km/h (2 Bft) 98,99 %
31.12.2018 11:00 8,7 C 8,3 C 7,8 C 100 % 1031,8 hPa 0,0 l/m 0,00 h 0,00 h 30 W/m 6,8 km/h (2 Bft) 96,04 %
31.12.2018 12:00 8,9 C 8,3 C 7,8 C 100 % 1031,5 hPa 0,0 l/m 0,00 h 0,00 h 33 W/m 5,1 km/h (1 Bft) 97,10 %
31.12.2018 13:00 9,0 C 8,6 C 8,3 C 100 % 1031,1 hPa 0,0 l/m 0,00 h 0,00 h 39 W/m 6,0 km/h (2 Bft) 99,57 %
31.12.2018 14:00 9,1 C 8,8 C 8,3 C 100 % 1031,0 hPa 0,0 l/m 0,00 h 0,00 h 36 W/m 3,2 km/h (1 Bft) 95,59 %
31.12.2018 15:00 9,1 C 8,5 C 8,3 C 100 % 1031,0 hPa 0,0 l/m 0,00 h 0,00 h 21 W/m 3,7 km/h (1 Bft) 97,51 %
31.12.2018 16:00 8,9 C 8,3 C 7,9 C 100 % 1031,3 hPa 0,0 l/m 0,00 h 0,00 h 8 W/m 2,2 km/h (1 Bft) 95,95 %
31.12.2018 17:00 8,8 C 8,2 C 7,8 C 99 % 1031,3 hPa 0,0 l/m 0,00 h 0,00 h 0 W/m 0,0 km/h (0 Bft) 92,96 %
31.12.2018 18:00 8,7 C 8,1 C 7,8 C 99 % 1031,3 hPa 0,0 l/m 0,00 h 0,00 h 0 W/m 2,9 km/h (1 Bft) 93,46 %
31.12.2018 19:00 8,5 C 7,8 C 7,5 C 99 % 1031,4 hPa 0,0 l/m 0,00 h 0,00 h 0 W/m 5,2 km/h (1 Bft) 83,22 %
31.12.2018 20:00 8,2 C 7,7 C 7,2 C 99 % 1031,4 hPa 0,0 l/m 0,00 h 0,00 h 0 W/m 0,3 km/h (0 Bft) 72,06 %
31.12.2018 21:00 8,1 C 7,2 C 7,2 C 99 % 1030,8 hPa 0,0 l/m 0,00 h 0,00 h 0 W/m 4,1 km/h (1 Bft) 77,07 %
31.12.2018 22:00 8,1 C 7,5 C 7,2 C 98 % 1030,6 hPa 0,0 l/m 0,00 h 0,00 h 0 W/m 5,5 km/h (1 Bft) 90,32 %
31.12.2018 23:00 7,9 C 7,2 C 6,7 C 98 % 1030,5 hPa 0,0 l/m 0,00 h 0,00 h 0 W/m 8,2 km/h (2 Bft) 82,48 %
01.01.2019 00:00 7,7 C 7,2 C 6,7 C 98 % 1030,2 hPa 0,0 l/m 0,00 h 0,00 h 0 W/m 8,7 km/h (2 Bft) 95,06 %
01.01.2019 01:00 7,6 C 7,1 C 6,6 C 97 % 1029,8 hPa 0,0 l/m 0,00 h 0,00 h 0 W/m 12,1 km/h (2 Bft) 98,17 %
01.01.2019 02:00 7,4 C 6,7 C 6,1 C 96 % 1029,5 hPa 0,0 l/m 0,00 h 0,00 h 0 W/m 10,7 km/h (2 Bft) 98,03 %
01.01.2019 03:00 7,2 C 6,7 C 6,1 C 96 % 1029,1 hPa 0,0 l/m 0,00 h 0,00 h 0 W/m 10,4 km/h (2 Bft) 96,51 %
01.01.2019 04:00 7,1 C 6,2 C 5,7 C 97 % 1028,4 hPa 0,0 l/m 0,00 h 0,23 h 0 W/m 11,9 km/h (2 Bft) 97,20 %
01.01.2019 05:00 6,9 C 6,7 C 6,1 C 96 % 1027,6 hPa 0,0 l/m 0,00 h 0,00 h 0 W/m 12,3 km/h (3 Bft) 97,44 %
01.01.2019 06:00 6,9 C 6,7 C 6,1 C 95 % 1027,0 hPa 0,0 l/m 0,00 h 0,00 h 0 W/m 15,7 km/h (3 Bft) 98,48 %
01.01.2019 07:00 6,9 C 6,7 C 6,1 C 94 % 1027,0 hPa 0,0 l/m 0,00 h 0,00 h 0 W/m 14,8 km/h (3 Bft) 96,14 %
01.01.2019 08:00 6,9 C 6,7 C 6,0 C 94 % 1026,8 hPa 0,0 l/m 0,00 h 0,00 h 0 W/m 14,3 km/h (3 Bft) 98,06 %
01.01.2019 09:00 6,9 C 6,1 C 5,6 C 94 % 1026,6 hPa 0,2 l/m 0,00 h 0,63 h 8 W/m 14,8 km/h (3 Bft) 98,95 %
01.01.2019 10:00 6,8 C 6,1 C 5,6 C 96 % 1026,1 hPa 0,0 l/m 0,00 h 0,33 h 16 W/m 14,6 km/h (3 Bft) 88,79 %
01.01.2019 11:00 7,0 C 6,2 C 5,6 C 97 % 1025,8 hPa 0,0 l/m 0,00 h 0,00 h 25 W/m 19,3 km/h (3 Bft) 93,05 %
01.01.2019 12:00 7,2 C 6,7 C 6,1 C 98 % 1025,5 hPa 0,2 l/m 0,00 h 0,33 h 31 W/m 15,7 km/h (3 Bft) 98,00 %
01.01.2019 13:00 7,6 C 7,0 C 6,6 C 98 % 1025,2 hPa 0,6 l/m 0,00 h 0,37 h 37 W/m 14,8 km/h (3 Bft) 91,04 %
01.01.2019 14:00 7,5 C 6,8 C 6,4 C 98 % 1025,3 hPa 0,4 l/m 0,10 h 0,27 h 57 W/m 14,2 km/h (3 Bft) 87,93 %
01.01.2019 15:00 7,5 C 6,9 C 6,4 C 98 % 1025,7 hPa 0,0 l/m 0,17 h 0,07 h 30 W/m 19,5 km/h (3 Bft) 86,01 %
01.01.2019 16:00 6,6 C 5,7 C 5,1 C 97 % 1026,0 hPa 0,0 l/m 0,07 h 0,00 h 14 W/m 17,3 km/h (3 Bft) 94,97 %
01.01.2019 17:00 6,1 C 4,9 C 4,5 C 94 % 1026,5 hPa 0,4 l/m 0,00 h 0,70 h 0 W/m 19,9 km/h (4 Bft) 98,79 %
01.01.2019 18:00 5,7 C 4,5 C 4,0 C 93 % 1027,1 hPa 0,0 l/m 0,00 h 0,70 h 0 W/m 20,3 km/h (4 Bft) 96,92 %
01.01.2019 19:00 5,2 C 4,3 C 3,5 C 92 % 1027,6 hPa 0,2 l/m 0,00 h 0,47 h 0 W/m 24,9 km/h (4 Bft) 97,79 %
01.01.2019 20:00 4,9 C 4,1 C 3,3 C 92 % 1028,3 hPa 0,2 l/m 0,00 h 0,83 h 0 W/m 19,8 km/h (4 Bft) 96,51 %
01.01.2019 21:00 4,8 C 4,3 C 3,3 C 92 % 1028,6 hPa 0,0 l/m 0,00 h 0,27 h 0 W/m 15,6 km/h (3 Bft) 95,30 %
01.01.2019 22:00 4,7 C 4,4 C 3,7 C 90 % 1028,7 hPa 0,0 l/m 0,00 h 0,00 h 0 W/m 14,5 km/h (3 Bft) 93,68 %
01.01.2019 23:00 4,6 C 4,0 C 3,3 C 87 % 1028,9 hPa 0,0 l/m 0,00 h 0,67 h 0 W/m 21,2 km/h (4 Bft) 89,45 %
02.01.2019 00:00 4,0 C 3,2 C 2,7 C 84 % 1029,4 hPa 0,0 l/m 0,00 h 0,15 h 0 W/m 17,1 km/h (3 Bft) 94,71 %
02.01.2019 01:00 3,6 C 3,0 C 2,4 C 84 % 1030,0 hPa 0,0 l/m 0,00 h 0,00 h 0 W/m 13,3 km/h (3 Bft) 96,96 %
02.01.2019 02:00 3,4 C 3,0 C 2,3 C 84 % 1030,4 hPa 0,0 l/m 0,00 h 0,00 h 0 W/m 12,9 km/h (3 Bft) 96,79 %
02.01.2019 03:00 3,6 C 3,3 C 2,7 C 84 % 1030,6 hPa 0,0 l/m 0,00 h 0,00 h 0 W/m 16,4 km/h (3 Bft) 86,41 %
02.01.2019 04:00 3,8 C 3,3 C 2,8 C 85 % 1030,8 hPa 0,0 l/m 0,00 h 0,00 h 0 W/m 15,6 km/h (3 Bft) 91,12 %
02.01.2019 05:00 3,8 C 3,3 C 2,8 C 85 % 1030,9 hPa 0,0 l/m 0,00 h 0,00 h 0 W/m 15,1 km/h (3 Bft) 96,49 %
02.01.2019 06:00 3,7 C 3,2 C 2,6 C 86 % 1031,2 hPa 0,0 l/m 0,00 h 0,00 h 0 W/m 16,4 km/h (3 Bft) 94,18 %
02.01.2019 07:00 3,5 C 2,8 C 2,2 C 87 % 1031,6 hPa 0,0 l/m 0,00 h 0,00 h 0 W/m 11,6 km/h (2 Bft) 95,08 %
02.01.2019 08:00 3,5 C 3,1 C 2,4 C 89 % 1032,2 hPa 0,0 l/m 0,00 h 0,00 h 7 W/m 14,9 km/h (3 Bft) 97,97 %
02.01.2019 09:00 3,8 C 3,4 C 3,5 C 90 % 1032,7 hPa 0,0 l/m 0,00 h 0,00 h 24 W/m 16,2 km/h (3 Bft) 97,60 %
02.01.2019 10:00 4,1 C 3,9 C 3,3 C 89 % 1033,4 hPa 0,0 l/m 0,00 h 0,00 h 47 W/m 17,5 km/h (3 Bft) 95,59 %
02.01.2019 11:00 4,8 C 6,8 C 4,3 C 89 % 1033,5 hPa 0,0 l/m 0,37 h 0,00 h 152 W/m 19,8 km/h (4 Bft) 99,15 %
02.01.2019 12:00 6,1 C 10,2 C 5,4 C 82 % 1033,5 hPa 0,0 l/m 0,87 h 0,00 h 230 W/m 26,2 km/h (4 Bft) 96,14 %
02.01.2019 13:00 7,2 C 12,1 C 5,8 C 76 % 1033,4 hPa 0,0 l/m 1,00 h 0,00 h 260 W/m 26,2 km/h (4 Bft) 95,80 %
02.01.2019 14:00 6,8 C 8,0 C 5,3 C 74 % 1033,6 hPa 0,0 l/m 0,50 h 0,00 h 116 W/m 22,4 km/h (4 Bft) 98,77 %
02.01.2019 15:00 5,5 C 4,7 C 3,6 C 77 % 1034,2 hPa 0,0 l/m 0,00 h 0,00 h 30 W/m 17,6 km/h (3 Bft) 95,84 %
02.01.2019 16:00 4,5 C 3,4 C 2,4 C 78 % 1034,5 hPa 0,0 l/m 0,00 h 0,00 h 11 W/m 9,2 km/h (2 Bft) 96,87 %
02.01.2019 17:00 4,0 C 3,1 C 2,2 C 81 % 1035,1 hPa 0,0 l/m 0,00 h 0,00 h 0 W/m 6,7 km/h (2 Bft) 99,50 %
02.01.2019 18:00 3,2 C 1,6 C 0,5 C 82 % 1035,5 hPa 0,0 l/m 0,00 h 0,00 h 0 W/m 6,2 km/h (2 Bft) 96,00 %
02.01.2019 19:00 2,1 C 0,6 C -0,5 C 84 % 1035,9 hPa 0,0 l/m 0,00 h 0,00 h 0 W/m 3,3 km/h (1 Bft) 97,72 %
02.01.2019 20:00 1,1 C -0,1 C -1,0 C 86 % 1036,2 hPa 0,0 l/m 0,00 h 0,00 h 0 W/m 2,9 km/h (1 Bft) 96,51 %
02.01.2019 21:00 0,6 C 0,0 C -0,7 C 87 % 1036,2 hPa 0,0 l/m 0,00 h 0,00 h 0 W/m 3,1 km/h (1 Bft) 97,30 %
02.01.2019 22:00 0,6 C -0,4 C -1,2 C 90 % 1036,0 hPa 0,0 l/m 0,00 h 0,00 h 0 W/m 2,9 km/h (1 Bft) 98,43 %
02.01.2019 23:00 0,1 C -0,9 C -1,8 C 90 % 1035,9 hPa 0,0 l/m 0,00 h 0,00 h 0 W/m 3,3 km/h (1 Bft) 98,58 %
03.01.2019 00:00 0,3 C 0,1 C -0,4 C 93 % 1036,1 hPa 0,0 l/m 0,00 h 0,00 h 0 W/m 2,6 km/h (1 Bft) 95,72 %
03.01.2019 01:00 0,7 C 0,6 C 0,3 C 94 % 1036,1 hPa 0,0 l/m 0,00 h 0,00 h 0 W/m 2,6 km/h (1 Bft) 97,93 %
03.01.2019 02:00 1,3 C 1,1 C 0,6 C 95 % 1036,4 hPa 0,0 l/m 0,00 h 0,00 h 0 W/m 3,9 km/h (1 Bft) 99,00 %
03.01.2019 03:00 1,6 C 1,2 C 1,1 C 95 % 1036,8 hPa 0,0 l/m 0,00 h 0,00 h 0 W/m 3,9 km/h (1 Bft) 97,01 %
03.01.2019 04:00 2,0 C 1,7 C 1,1 C 95 % 1036,1 hPa 0,0 l/m 0,00 h 0,07 h 0 W/m 5,5 km/h (1 Bft) 96,61 %
03.01.2019 05:00 2,2 C 1,7 C 1,2 C 96 % 1036,0 hPa 0,0 l/m 0,00 h 0,00 h 0 W/m 2,9 km/h (1 Bft) 98,07 %
03.01.2019 06:00 2,4 C 1,8 C 1,3 C 96 % 1036,1 hPa 0,0 l/m 0,00 h 0,17 h 0 W/m 4,5 km/h (1 Bft) 96,65 %
03.01.2019 07:00 2,4 C 1,9 C 1,4 C 96 % 1036,1 hPa 0,0 l/m 0,00 h 0,00 h 0 W/m 3,6 km/h (1 Bft) 97,58 %
03.01.2019 08:00 2,6 C 2,0 C 1,7 C 96 % 1036,4 hPa 0,0 l/m 0,00 h 0,30 h 5 W/m 3,7 km/h (1 Bft) 96,37 %
03.01.2019 09:00 2,7 C 2,1 C 1,7 C 96 % 1036,7 hPa 0,0 l/m 0,00 h 0,00 h 23 W/m 1,4 km/h (1 Bft) 97,01 %
03.01.2019 10:00 3,1 C 3,1 C 2,4 C 97 % 1037,0 hPa 0,0 l/m 0,00 h 0,00 h 52 W/m 7,6 km/h (2 Bft) 99,36 %
03.01.2019 11:00 3,8 C 4,5 C 3,5 C 97 % 1036,9 hPa 0,2 l/m 0,00 h 0,00 h 89 W/m 10,9 km/h (2 Bft) 95,23 %
03.01.2019 12:00 4,9 C 6,1 C 4,6 C 95 % 1036,5 hPa 0,0 l/m 0,13 h 0,00 h 120 W/m 14,0 km/h (3 Bft) 97,10 %
03.01.2019 13:00 5,1 C 5,5 C 4,7 C 91 % 1036,3 hPa 0,0 l/m 0,00 h 0,00 h 92 W/m 15,9 km/h (3 Bft) 98,43 %
03.01.2019 14:00 5,2 C 5,1 C 4,4 C 89 % 1036,2 hPa 0,0 l/m 0,00 h 0,00 h 59 W/m 13,4 km/h (3 Bft) 96,87 %
03.01.2019 15:00 5,2 C 4,8 C 4,2 C 88 % 1036,3 hPa 0,0 l/m 0,00 h 0,00 h 35 W/m 13,3 km/h (3 Bft) 98,00 %
03.01.2019 16:00 4,9 C 4,1 C 3,6 C 89 % 1036,4 hPa 0,0 l/m 0,00 h 0,07 h 10 W/m 8,8 km/h (2 Bft) 97,21 %
03.01.2019 17:00 4,5 C 3,9 C 3,3 C 90 % 1036,6 hPa 0,0 l/m 0,00 h 0,00 h 0 W/m 9,6 km/h (2 Bft) 98,14 %
03.01.2019 18:00 4,3 C 3,9 C 3,3 C 91 % 1036,6 hPa 0,0 l/m 0,00 h 0,10 h 0 W/m 9,9 km/h (2 Bft) 96,31 %
03.01.2019 19:00 4,1 C 3,2 C 2,7 C 91 % 1036,6 hPa 0,0 l/m 0,00 h 0,10 h 0 W/m 9,0 km/h (2 Bft) 98,24 %
03.01.2019 20:00 3,9 C 3,3 C 2,8 C 92 % 1036,9 hPa 0,0 l/m 0,00 h 0,00 h 0 W/m 10,9 km/h (2 Bft) 98,65 %
03.01.2019 21:00 3,9 C 3,3 C 2,8 C 93 % 1037,0 hPa 0,0 l/m 0,00 h 0,00 h 0 W/m 9,4 km/h (2 Bft) 95,07 %
03.01.2019 22:00 3,8 C 3,2 C 2,7 C 93 % 1036,9 hPa 0,0 l/m 0,00 h 0,00 h 0 W/m 10,1 km/h (2 Bft) 96,61 %
03.01.2019 23:00 3,5 C 2,6 C 2,0 C 93 % 1036,9 hPa 0,0 l/m 0,00 h 0,00 h 0 W/m 7,4 km/h (2 Bft) 98,15 %
04.01.2019 00:00 3,0 C 1,9 C 1,4 C 94 % 1036,8 hPa 0,0 l/m 0,00 h 0,00 h 0 W/m 4,2 km/h (1 Bft) 96,12 %
04.01.2019 01:00 2,2 C 0,8 C -0,1 C 94 % 1036,8 hPa 0,0 l/m 0,00 h 0,00 h 0 W/m 0,0 km/h (0 Bft) 97,01 %
04.01.2019 02:00 1,7 C 1,1 C 0,5 C 94 % 1036,8 hPa 0,0 l/m 0,00 h 0,00 h 0 W/m 0,6 km/h (0 Bft) 98,01 %
04.01.2019 03:00 1,9 C 1,1 C 1,1 C 95 % 1036,9 hPa 0,0 l/m 0,00 h 0,00 h 0 W/m 2,0 km/h (1 Bft) 97,93 %
04.01.2019 04:00 2,0 C 1,3 C 1,1 C 96 % 1036,8 hPa 0,0 l/m 0,00 h 0,00 h 0 W/m 0,4 km/h (0 Bft) 96,58 %
04.01.2019 05:00 2,1 C 1,8 C 1,4 C 96 % 1036,4 hPa 0,0 l/m 0,00 h 0,00 h 0 W/m 2,3 km/h (1 Bft) 97,97 %
04.01.2019 06:00 2,4 C 2,2 C 1,7 C 97 % 1036,3 hPa 0,0 l/m 0,00 h 0,00 h 0 W/m 4,1 km/h (1 Bft) 97,36 %
04.01.2019 07:00 2,7 C 2,2 C 1,7 C 97 % 1036,1 hPa 0,0 l/m 0,00 h 0,07 h 0 W/m 3,3 km/h (1 Bft) 97,79 %
04.01.2019 08:00 2,8 C 2,2 C 1,7 C 97 % 1036,3 hPa 0,2 l/m 0,00 h 0,33 h 4 W/m 5,4 km/h (1 Bft) 95,52 %
04.01.2019 09:00 3,2 C 2,7 C 2,2 C 97 % 1036,4 hPa 0,0 l/m 0,20 h 0,37 h 32 W/m 6,2 km/h (2 Bft) 97,77 %
04.01.2019 10:00 3,5 C 3,2 C 2,7 C 98 % 1036,1 hPa 0,0 l/m 0,00 h 0,00 h 38 W/m 6,3 km/h (2 Bft) 98,15 %
04.01.2019 11:00 4,1 C 4,0 C 3,5 C 98 % 1035,3 hPa 0,0 l/m 0,03 h 0,43 h 80 W/m 11,7 km/h (2 Bft) 96,80 %
04.01.2019 12:00 4,3 C 3,6 C 3,2 C 97 % 1034,6 hPa 0,4 l/m 0,00 h 0,90 h 51 W/m 13,4 km/h (3 Bft) 96,98 %
04.01.2019 13:00 4,1 C 3,3 C 3,0 C 97 % 1034,1 hPa 0,2 l/m 0,00 h 0,20 h 33 W/m 13,4 km/h (3 Bft) 97,08 %
04.01.2019 14:00 3,8 C 3,1 C 2,8 C 96 % 1033,7 hPa 0,0 l/m 0,00 h 0,27 h 18 W/m 12,6 km/h (3 Bft) 98,56 %
04.01.2019 15:00 3,7 C 2,8 C 2,3 C 96 % 1033,4 hPa 0,2 l/m 0,00 h 0,40 h 9 W/m 12,5 km/h (3 Bft) 96,25 %
04.01.2019 16:00 3,4 C 2,7 C 2,2 C 97 % 1033,3 hPa 0,0 l/m 0,00 h 0,13 h 2 W/m 13,7 km/h (3 Bft) 93,71 %
04.01.2019 17:00 3,1 C 2,2 C 1,9 C 97 % 1033,1 hPa 0,4 l/m 0,00 h 0,93 h 0 W/m 13,7 km/h (3 Bft) 96,32 %
04.01.2019 18:00 2,8 C 2,2 C 1,7 C 97 % 1032,5 hPa 0,2 l/m 0,00 h 1,00 h 0 W/m 14,0 km/h (3 Bft) 89,69 %
04.01.2019 19:00 2,7 C 2,2 C 1,7 C 97 % 1032,3 hPa 0,0 l/m 0,00 h 0,33 h 0 W/m 13,6 km/h (3 Bft) 97,26 %
04.01.2019 20:00 2,6 C 2,1 C 1,7 C 97 % 1032,5 hPa 0,0 l/m 0,00 h 0,00 h 0 W/m 12,7 km/h (3 Bft) 99,37 %
04.01.2019 21:00 2,8 C 2,2 C 1,7 C 98 % 1032,2 hPa 0,0 l/m 0,00 h 0,00 h 0 W/m 10,4 km/h (2 Bft) 95,58 %
04.01.2019 22:00 3,0 C 2,5 C 2,1 C 98 % 1032,0 hPa 0,0 l/m 0,00 h 0,03 h 0 W/m 9,2 km/h (2 Bft) 97,68 %
04.01.2019 23:00 3,3 C 2,8 C 2,2 C 98 % 1031,7 hPa 0,0 l/m 0,00 h 0,00 h 0 W/m 10,6 km/h (2 Bft) 98,85 %
05.01.2019 00:00 3,5 C 3,1 C 2,5 C 98 % 1031,3 hPa 0,0 l/m 0,00 h 0,00 h 0 W/m 8,3 km/h (2 Bft) 96,15 %
05.01.2019 01:00 3,7 C 3,3 C 2,8 C 98 % 1030,8 hPa 0,2 l/m 0,00 h 0,63 h 0 W/m 10,1 km/h (2 Bft) 97,29 %
05.01.2019 02:00 4,0 C 3,5 C 3,0 C 99 % 1030,6 hPa 0,4 l/m 0,00 h 0,90 h 0 W/m 7,8 km/h (2 Bft) 97,65 %
05.01.2019 03:00 4,4 C 3,9 C 3,3 C 99 % 1030,0 hPa 0,4 l/m 0,00 h 0,67 h 0 W/m 11,0 km/h (2 Bft) 97,01 %
05.01.2019 04:00 4,8 C 4,3 C 3,7 C 99 % 1029,3 hPa 0,0 l/m 0,00 h 0,63 h 0 W/m 12,8 km/h (3 Bft) 97,01 %
05.01.2019 05:00 5,2 C 4,5 C 3,9 C 99 % 1028,7 hPa 0,0 l/m 0,00 h 0,10 h 0 W/m 14,2 km/h (3 Bft) 98,27 %
05.01.2019 06:00 5,4 C 5,0 C 4,4 C 99 % 1028,1 hPa 0,2 l/m 0,00 h 0,33 h 0 W/m 12,9 km/h (3 Bft) 97,65 %
05.01.2019 07:00 5,9 C 5,5 C 4,8 C 99 % 1028,2 hPa 0,0 l/m 0,00 h 0,00 h 0 W/m 19,3 km/h (3 Bft) 92,14 %
05.01.2019 08:00 5,9 C 5,6 C 4,9 C 99 % 1028,5 hPa 0,0 l/m 0,00 h 0,00 h 0 W/m 17,9 km/h (3 Bft) 98,28 %
05.01.2019 09:00 5,9 C 5,6 C 5,0 C 99 % 1028,6 hPa 0,2 l/m 0,00 h 0,37 h 15 W/m 18,3 km/h (3 Bft) 96,71 %
05.01.2019 10:00 5,9 C 5,6 C 5,0 C 99 % 1028,8 hPa 0,0 l/m 0,00 h 0,07 h 30 W/m 19,4 km/h (3 Bft) 97,00 %
05.01.2019 11:00 6,1 C 5,6 C 5,0 C 99 % 1028,7 hPa 0,2 l/m 0,00 h 0,00 h 44 W/m 19,1 km/h (3 Bft) 98,09 %
05.01.2019 12:00 6,4 C 6,0 C 5,5 C 99 % 1028,2 hPa 0,0 l/m 0,00 h 0,00 h 59 W/m 20,2 km/h (4 Bft) 95,46 %
05.01.2019 13:00 6,4 C 6,0 C 5,6 C 99 % 1028,1 hPa 0,0 l/m 0,00 h 0,00 h 55 W/m 20,7 km/h (4 Bft) 98,08 %
05.01.2019 14:00 6,4 C 6,0 C 5,6 C 99 % 1028,1 hPa 0,0 l/m 0,00 h 0,00 h 56 W/m 20,6 km/h (4 Bft) 97,58 %
05.01.2019 15:00 6,3 C 5,6 C 5,1 C 99 % 1028,4 hPa 0,0 l/m 0,00 h 0,10 h 25 W/m 20,3 km/h (4 Bft) 95,58 %
05.01.2019 16:00 6,1 C 5,4 C 4,9 C 98 % 1028,8 hPa 0,0 l/m 0,00 h 0,13 h 8 W/m 17,8 km/h (3 Bft) 97,79 %
05.01.2019 17:00 5,9 C 5,0 C 4,4 C 98 % 1029,0 hPa 0,0 l/m 0,00 h 0,60 h 0 W/m 18,2 km/h (3 Bft) 96,08 %
05.01.2019 18:00 5,8 C 5,0 C 4,4 C 98 % 1029,1 hPa 0,2 l/m 0,00 h 0,33 h 0 W/m 17,9 km/h (3 Bft) 96,98 %
05.01.2019 19:00 5,6 C 5,0 C 4,4 C 98 % 1029,0 hPa 0,0 l/m 0,00 h 0,00 h 0 W/m 17,7 km/h (3 Bft) 96,94 %
05.01.2019 20:00 5,6 C 5,0 C 4,4 C 98 % 1029,1 hPa 0,2 l/m 0,00 h 0,00 h 0 W/m 14,5 km/h (3 Bft) 96,81 %
05.01.2019 21:00 5,6 C 5,0 C 4,4 C 98 % 1029,3 hPa 0,0 l/m 0,00 h 0,00 h 0 W/m 16,1 km/h (3 Bft) 97,84 %
05.01.2019 22:00 5,4 C 4,8 C 4,4 C 98 % 1029,5 hPa 0,0 l/m 0,00 h 0,37 h 0 W/m 16,5 km/h (3 Bft) 97,18 %
05.01.2019 23:00 5,3 C 4,4 C 3,9 C 98 % 1029,4 hPa 0,2 l/m 0,00 h 0,10 h 0 W/m 17,7 km/h (3 Bft) 98,02 %
06.01.2019 00:00 5,3 C 4,4 C 3,9 C 98 % 1029,2 hPa 0,0 l/m 0,00 h 0,00 h 0 W/m 19,1 km/h (3 Bft) 96,94 %
06.01.2019 01:00 5,3 C 5,0 C 3,9 C 98 % 1029,5 hPa 0,0 l/m 0,00 h 0,00 h 0 W/m 20,2 km/h (4 Bft) 98,00 %
06.01.2019 02:00 5,1 C 4,4 C 3,9 C 98 % 1029,8 hPa 0,0 l/m 0,00 h 0,00 h 0 W/m 15,9 km/h (3 Bft) 98,43 %
06.01.2019 03:00 4,9 C 4,4 C 3,9 C 98 % 1029,9 hPa 0,0 l/m 0,00 h 0,00 h 0 W/m 15,0 km/h (3 Bft) 95,07 %
06.01.2019 04:00 4,9 C 4,4 C 3,9 C 98 % 1029,7 hPa 0,0 l/m 0,00 h 0,00 h 0 W/m 16,9 km/h (3 Bft) 99,48 %
06.01.2019 05:00 4,9 C 4,4 C 3,9 C 98 % 1029,3 hPa 0,0 l/m 0,00 h 0,00 h 0 W/m 17,8 km/h (3 Bft) 98,14 %
06.01.2019 06:00 4,9 C 4,4 C 3,9 C 98 % 1029,2 hPa 0,0 l/m 0,00 h 0,00 h 0 W/m 15,1 km/h (3 Bft) 94,90 %
06.01.2019 07:00 4,8 C 4,2 C 3,7 C 98 % 1029,7 hPa 0,0 l/m 0,00 h 0,20 h 0 W/m 13,0 km/h (3 Bft) 99,26 %
06.01.2019 08:00 4,7 C 3,9 C 3,3 C 98 % 1030,1 hPa 0,0 l/m 0,00 h 0,03 h 5 W/m 12,7 km/h (3 Bft) 98,00 %
06.01.2019 09:00 4,7 C 4,0 C 3,6 C 98 % 1030,5 hPa 0,2 l/m 0,00 h 0,07 h 14 W/m 10,5 km/h (2 Bft) 95,79 %
06.01.2019 10:00 4,9 C 4,5 C 4,1 C 99 % 1030,8 hPa 0,0 l/m 0,00 h 0,00 h 40 W/m 11,1 km/h (2 Bft) 98,46 %
06.01.2019 11:00 5,3 C 5,3 C 4,5 C 99 % 1031,0 hPa 0,0 l/m 0,00 h 0,00 h 73 W/m 10,8 km/h (2 Bft) 98,01 %
06.01.2019 12:00 5,7 C 6,0 C 5,0 C 99 % 1031,0 hPa 0,0 l/m 0,00 h 0,00 h 91 W/m 11,9 km/h (2 Bft) 96,54 %
06.01.2019 13:00 5,9 C 6,1 C 5,0 C 99 % 1030,7 hPa 0,0 l/m 0,00 h 0,00 h 86 W/m 12,5 km/h (3 Bft) 96,06 %
06.01.2019 14:00 6,2 C 6,3 C 5,2 C 98 % 1030,7 hPa 0,0 l/m 0,00 h 0,00 h 78 W/m 10,6 km/h (2 Bft) 99,72 %
06.01.2019 15:00 6,3 C 5,7 C 4,8 C 95 % 1031,1 hPa 0,2 l/m 0,00 h 0,00 h 32 W/m 6,7 km/h (2 Bft) 95,97 %
06.01.2019 16:00 5,9 C 5,0 C 4,3 C 94 % 1031,3 hPa 0,0 l/m 0,00 h 0,07 h 8 W/m 6,0 km/h (2 Bft) 97,35 %
06.01.2019 17:00 5,5 C 4,4 C 3,9 C 94 % 1031,4 hPa 0,0 l/m 0,00 h 0,40 h 0 W/m 5,3 km/h (1 Bft) 99,72 %
06.01.2019 18:00 5,3 C 4,4 C 3,9 C 95 % 1031,6 hPa 0,0 l/m 0,00 h 0,20 h 0 W/m 4,9 km/h (1 Bft) 95,21 %
06.01.2019 19:00 5,2 C 4,4 C 3,9 C 96 % 1031,8 hPa 0,0 l/m 0,00 h 0,00 h 0 W/m 6,2 km/h (2 Bft) 98,08 %
06.01.2019 20:00 4,9 C 4,0 C 3,5 C 96 % 1032,0 hPa 0,2 l/m 0,00 h 0,33 h 0 W/m 2,5 km/h (1 Bft) 98,79 %
06.01.2019 21:00 4,7 C 3,9 C 3,3 C 96 % 1032,0 hPa 0,0 l/m 0,00 h 0,07 h 0 W/m 0,0 km/h (0 Bft) 96,01 %
06.01.2019 22:00 4,5 C 3,4 C 3,3 C 97 % 1032,3 hPa 0,0 l/m 0,00 h 0,00 h 0 W/m 0,2 km/h (0 Bft) 97,65 %
06.01.2019 23:00 4,3 C 3,3 C 3,2 C 97 % 1032,2 hPa 0,0 l/m 0,00 h 0,00 h 0 W/m 0,4 km/h (0 Bft) 97,79 %
Min-Datum _ 02.01.19 02.01.19 02.01.19 02.01.19 01.01.19 - - - - 31.12.18 01.01.19
_ Min-Zeit 23:34 22:46 22:52 14:24 13:42 - - - - 00:16 10:22
Minimum _ 0,0 C -1,1 C -2,2 C 72 % 1025,1 hPa - - - - 0,0 km/h (0 Bft) 56,00 %
Max-Datum _ 31.12.18 02.01.19 02.01.19 31.12.18 03.01.19 01.01.19 02.01.19 31.12.18 02.01.19 01.01.19 31.12.18
_ Max-Zeit 14:54 13:04 09:50 06:04 10:12 13:20 12:08 04:05 12:24 18:56 00:32
Maximum _ 9,2 C 13,3 C 10,6 C 100 % 1037,1 hPa 0,6 l/m 0,07 h 0,08 h 353 W/m 57,9 km/h
N-NW (7 Bft)
100,00 %
Durchschnitt _ 5,1 C 4,6 C 4,0 C 95 % 1031,8 hPa #7,2 l/m #3:26 h #19:31 h 45 W/m 10,8 km/h (2 Bft) 96,22 %
© 2019 W. Hausmann